Time;durP1;ratioP1;P1;durP2;ratioP2;P2;SDS_P1;SDS_P2;PMS_P1;PMS_P2;Temp;Humidity;BMP_temperature;BMP_pressure;BME280_temperature;BME280_humidity;BME280_pressure;Samples;Min_cycle;Max_cycle;Signal;HPM_P1;HPM_P2
2023/08/07 00:02:23;;;;;;;;;;;;;;;;;;5071496;28;19931;-66
2023/08/07 00:04:49;;;;;;;;;;;;;;;;;;5068787;28;20402;-66
2023/08/07 00:07:15;;;;;;;;;;;;;;;;;;5035865;28;19931;-66
2023/08/07 00:09:41;;;;;;;;;;;;;;;;;;5068009;28;19930;-66
2023/08/07 00:12:07;;;;;;;;;;;;;;;;;;5071510;28;19921;-66
2023/08/07 00:14:32;;;;;;;;;;;;;;;;;;5052599;28;20353;-66
2023/08/07 00:16:58;;;;;;;;;;;;;;;;;;5071542;28;19927;-66
2023/08/07 00:19:24;;;;;;;;;;;;;;;;;;5062889;28;19932;-66
2023/08/07 00:21:50;;;;;;;;;;;;;;;;;;5062753;28;20477;-66
2023/08/07 00:24:16;;;;;;;;;;;;;;;;;;5069091;28;19970;-66
2023/08/07 00:26:42;;;;;;;;;;;;;;;;;;5069100;28;20370;-66
2023/08/07 00:29:08;;;;;;;;;;;;;;;;;;5068564;28;19924;-66
2023/08/07 00:31:34;;;;;;;;;;;;;;;;;;5070053;28;19930;-66
2023/08/07 00:34:00;;;;;;;;;;;;;;;;;;5069592;28;20565;-66
2023/08/07 00:36:28;;;;;;;;;;;;;;;;;;5054839;28;19924;-66
2023/08/07 00:38:54;;;;;;;;;;;;;;;;;;5069886;28;19947;-66
2023/08/07 00:41:20;;;;;;;;;;;;;;;;;;5070921;28;20464;-66
2023/08/07 00:43:46;;;;;;;;;;;;;;;;;;5069305;28;19960;-66
2023/08/07 00:46:12;;;;;;;;;;;;;;;;;;5070292;28;19921;-66
2023/08/07 00:48:38;;;;;;;;;;;;;;;;;;5071322;28;20335;-66
2023/08/07 00:51:07;;;;;;;;;;;;;;;;;;5068194;28;20293;-66
2023/08/07 00:53:33;;;;;;;;;;;;;;;;;;5053985;28;20011;-66
2023/08/07 00:56:00;;;;;;;;;;;;;;;;;;5068780;28;20015;-66
2023/08/07 00:58:26;;;;;;;;;;;;;;;;;;5065074;28;19924;-66
2023/08/07 01:00:51;;;;;;;;;;;;;;;;;;5069592;28;19928;-66
2023/08/07 01:03:17;;;;;;;;;;;;;;;;;;5070600;28;19928;-66
2023/08/07 01:05:43;;;;;;;;;;;;;;;;;;5069812;28;20061;-66
2023/08/07 01:08:09;;;;;;;;;;;;;;;;;;5070723;28;20015;-66
2023/08/07 01:10:35;;;;;;;;;;;;;;;;;;5069127;28;19942;-66
2023/08/07 01:13:01;;;;;;;;;;;;;;;;;;5070265;28;20393;-66
2023/08/07 01:15:27;;;;;;;;;;;;;;;;;;5070710;28;19932;-66
2023/08/07 01:17:53;;;;;;;;;;;;;;;;;;5069879;28;19993;-65
2023/08/07 01:20:19;;;;;;;;;;;;;;;;;;5068937;28;20364;-66
2023/08/07 01:22:45;;;;;;;;;;;;;;;;;;5069306;28;19927;-66
2023/08/07 01:25:11;;;;;;;;;;;;;;;;;;5051256;28;19931;-66
2023/08/07 01:27:39;;;;;;;;;;;;;;;;;;5067646;28;19920;-66
2023/08/07 01:30:05;;;;;;;;;;;;;;;;;;5052671;28;19920;-66
2023/08/07 01:32:31;;;;;;;;;;;;;;;;;;5069160;28;19978;-66
2023/08/07 01:34:57;;;;;;;;;;;;;;;;;;5069375;28;19928;-66
2023/08/07 01:37:23;;;;;;;;;;;;;;;;;;5062024;28;19928;-66
2023/08/07 01:39:49;;;;;;;;;;;;;;;;;;5067776;28;20020;-65
2023/08/07 01:42:15;;;;;;;;;;;;;;;;;;5051488;28;20121;-66
2023/08/07 01:44:41;;;;;;;;;;;;;;;;;;5073156;28;19924;-66
2023/08/07 01:47:07;;;;;;;;;;;;;;;;;;5073154;28;19924;-66
2023/08/07 01:49:33;;;;;;;;;;;;;;;;;;5075376;28;20312;-66
2023/08/07 01:51:58;;;;;;;;;;;;;;;;;;5054040;28;20294;-65
2023/08/07 01:54:24;;;;;;;;;;;;;;;;;;5078661;28;19935;-66
2023/08/07 01:56:50;;;;;;;;;;;;;;;;;;5075730;28;20002;-66
2023/08/07 01:59:16;;;;;;;;;;;;;;;;;;5072931;28;19920;-66
2023/08/07 02:01:42;;;;;;;;;;;;;;;;;;5070831;28;19927;-66
2023/08/07 02:04:08;;;;;;;;;;;;;;;;;;5070899;28;20370;-66
2023/08/07 02:06:34;;;;;;;;;;;;;;;;;;5073029;28;20368;-66
2023/08/07 02:09:00;;;;;;;;;;;;;;;;;;5054698;28;19962;-66
2023/08/07 02:11:26;;;;;;;;;;;;;;;;;;5071685;28;20335;-66
2023/08/07 02:13:51;;;;;;;;;;;;;;;;;;5071695;28;19928;-66
2023/08/07 02:16:17;;;;;;;;;;;;;;;;;;5055125;28;19925;-66
2023/08/07 02:18:43;;;;;;;;;;;;;;;;;;5073960;28;19924;-66
2023/08/07 02:21:09;;;;;;;;;;;;;;;;;;5073829;28;19920;-66
2023/08/07 02:23:35;;;;;;;;;;;;;;;;;;5074741;28;20383;-66
2023/08/07 02:26:01;;;;;;;;;;;;;;;;;;5071944;28;19924;-66
2023/08/07 02:28:27;;;;;;;;;;;;;;;;;;5074180;28;19951;-65
2023/08/07 02:30:54;;;;;;;;;;;;;;;;;;5072546;28;19974;-66
2023/08/07 02:33:20;;;;;;;;;;;;;;;;;;5073926;28;19924;-66
2023/08/07 02:35:46;;;;;;;;;;;;;;;;;;5053169;28;20388;-66
2023/08/07 02:38:12;;;;;;;;;;;;;;;;;;5053282;28;19921;-66
2023/08/07 02:40:37;;;;;;;;;;;;;;;;;;5072891;28;20417;-66
2023/08/07 02:43:03;;;;;;;;;;;;;;;;;;5071935;28;19929;-66
2023/08/07 02:45:29;;;;;;;;;;;;;;;;;;5068395;28;19943;-65
2023/08/07 02:47:55;;;;;;;;;;;;;;;;;;5071323;28;19924;-66
2023/08/07 02:50:21;;;;;;;;;;;;;;;;;;5054070;28;19928;-66
2023/08/07 02:52:47;;;;;;;;;;;;;;;;;;5038688;28;20031;-66
2023/08/07 02:55:13;;;;;;;;;;;;;;;;;;5071133;28;19924;-66
2023/08/07 02:57:39;;;;;;;;;;;;;;;;;;5072603;28;19928;-66
2023/08/07 03:00:04;;;;;;;;;;;;;;;;;;5069820;28;19920;-66
2023/08/07 03:02:30;;;;;;;;;;;;;;;;;;5050428;28;20537;-65
2023/08/07 03:04:56;;;;;;;;;;;;;;;;;;5051940;28;19920;-66
2023/08/07 03:07:22;;;;;;;;;;;;;;;;;;5071175;28;19921;-66
2023/08/07 03:09:48;;;;;;;;;;;;;;;;;;5071425;28;19962;-66
2023/08/07 03:12:14;;;;;;;;;;;;;;;;;;5072027;28;20378;-66
2023/08/07 03:14:40;;;;;;;;;;;;;;;;;;5070225;28;19938;-66
2023/08/07 03:17:06;;;;;;;;;;;;;;;;;;5069250;28;19928;-66
2023/08/07 03:19:31;;;;;;;;;;;;;;;;;;5063252;28;19973;-67
2023/08/07 03:21:57;;;;;;;;;;;;;;;;;;5065187;28;19924;-67
2023/08/07 03:24:23;;;;;;;;;;;;;;;;;;5067676;28;20390;-67
2023/08/07 03:26:49;;;;;;;;;;;;;;;;;;5071296;28;20328;-67
2023/08/07 03:29:15;;;;;;;;;;;;;;;;;;5070747;28;19920;-67
2023/08/07 03:31:41;;;;;;;;;;;;;;;;;;5070186;28;19964;-67
2023/08/07 03:34:07;;;;;;;;;;;;;;;;;;5072836;28;20406;-67
2023/08/07 03:36:33;;;;;;;;;;;;;;;;;;5070044;28;20007;-67
2023/08/07 03:38:59;;;;;;;;;;;;;;;;;;5069482;28;19930;-67
2023/08/07 03:41:25;;;;;;;;;;;;;;;;;;5065728;28;19925;-67
2023/08/07 03:43:51;;;;;;;;;;;;;;;;;;5071345;28;19920;-67
2023/08/07 03:46:16;;;;;;;;;;;;;;;;;;5048607;28;19920;-67
2023/08/07 03:48:42;;;;;;;;;;;;;;;;;;5072301;28;20270;-67
2023/08/07 03:51:08;;;;;;;;;;;;;;;;;;5072279;28;19933;-67
2023/08/07 03:53:34;;;;;;;;;;;;;;;;;;5052542;28;19924;-67
2023/08/07 03:56:00;;;;;;;;;;;;;;;;;;5051221;28;19971;-67
2023/08/07 03:58:26;;;;;;;;;;;;;;;;;;5071146;28;19925;-67
2023/08/07 04:00:52;;;;;;;;;;;;;;;;;;5071061;28;19924;-67
2023/08/07 04:03:18;;;;;;;;;;;;;;;;;;5072105;28;19921;-68
2023/08/07 04:05:44;;;;;;;;;;;;;;;;;;5070056;28;19968;-67
2023/08/07 04:08:09;;;;;;;;;;;;;;;;;;5071426;28;20015;-67
2023/08/07 04:10:35;;;;;;;;;;;;;;;;;;5071667;28;20391;-67
2023/08/07 04:13:01;;;;;;;;;;;;;;;;;;5072978;28;19925;-67
2023/08/07 04:15:27;;;;;;;;;;;;;;;;;;5052956;28;20236;-67
2023/08/07 04:17:53;;;;;;;;;;;;;;;;;;5054527;28;19932;-67
2023/08/07 04:20:20;;;;;;;;;;;;;;;;;;5067998;28;19928;-67
2023/08/07 04:22:46;;;;;;;;;;;;;;;;;;5072293;28;19928;-67
2023/08/07 04:25:12;;;;;;;;;;;;;;;;;;5070980;28;20023;-67
2023/08/07 04:27:38;;;;;;;;;;;;;;;;;;5062364;28;20069;-67
2023/08/07 04:30:04;;;;;;;;;;;;;;;;;;5066655;28;19924;-67
2023/08/07 04:32:30;;;;;;;;;;;;;;;;;;5067669;28;19939;-67
2023/08/07 04:34:56;;;;;;;;;;;;;;;;;;5072601;28;20588;-67
2023/08/07 04:37:22;;;;;;;;;;;;;;;;;;5069336;28;19978;-67
2023/08/07 04:39:48;;;;;;;;;;;;;;;;;;5067908;28;19925;-67
2023/08/07 04:42:14;;;;;;;;;;;;;;;;;;5069565;28;19931;-67
2023/08/07 04:44:40;;;;;;;;;;;;;;;;;;5066479;28;19925;-67
2023/08/07 04:47:05;;;;;;;;;;;;;;;;;;5072062;28;19921;-67
2023/08/07 04:49:31;;;;;;;;;;;;;;;;;;5052778;28;19974;-67
2023/08/07 04:51:57;;;;;;;;;;;;;;;;;;5070995;28;20269;-67
2023/08/07 04:54:23;;;;;;;;;;;;;;;;;;5070228;28;19974;-67
2023/08/07 04:56:49;;;;;;;;;;;;;;;;;;5069175;28;19924;-67
2023/08/07 04:59:15;;;;;;;;;;;;;;;;;;5069250;28;19974;-67
2023/08/07 05:01:41;;;;;;;;;;;;;;;;;;5066759;28;19959;-67
2023/08/07 05:04:07;;;;;;;;;;;;;;;;;;5071872;28;20376;-68
2023/08/07 05:06:33;;;;;;;;;;;;;;;;;;5070832;28;19931;-67
2023/08/07 05:08:59;;;;;;;;;;;;;;;;;;5064581;28;19920;-67
2023/08/07 05:11:24;;;;;;;;;;;;;;;;;;5068669;28;19977;-67
2023/08/07 05:13:50;;;;;;;;;;;;;;;;;;5053607;28;19928;-66
2023/08/07 05:16:18;;;;;;;;;;;;;;;;;;5068616;28;20275;-66
2023/08/07 05:18:44;;;;;;;;;;;;;;;;;;5067720;28;20050;-66
2023/08/07 05:21:10;;;;;;;;;;;;;;;;;;5067123;28;20007;-66
2023/08/07 05:23:36;;;;;;;;;;;;;;;;;;5069418;28;19955;-67
2023/08/07 05:26:02;;;;;;;;;;;;;;;;;;5069543;28;19945;-66
2023/08/07 05:28:28;;;;;;;;;;;;;;;;;;5057264;28;19931;-66
2023/08/07 05:30:54;;;;;;;;;;;;;;;;;;5055442;28;19932;-66
2023/08/07 05:33:20;;;;;;;;;;;;;;;;;;5069021;28;19968;-66
2023/08/07 05:35:46;;;;;;;;;;;;;;;;;;5070961;28;19928;-67
2023/08/07 05:38:12;;;;;;;;;;;;;;;;;;5071039;28;20270;-66
2023/08/07 05:40:38;;;;;;;;;;;;;;;;;;5064397;28;19931;-66
2023/08/07 05:43:04;;;;;;;;;;;;;;;;;;5071171;28;20015;-67
2023/08/07 05:45:29;;;;;;;;;;;;;;;;;;5070130;28;19932;-67
2023/08/07 05:47:55;;;;;;;;;;;;;;;;;;5071378;28;19956;-67
2023/08/07 05:50:21;;;;;;;;;;;;;;;;;;5068877;28;19959;-67
2023/08/07 05:52:47;;;;;;;;;;;;;;;;;;5068830;28;20276;-66
2023/08/07 05:55:13;;;;;;;;;;;;;;;;;;5067269;28;19929;-67
2023/08/07 05:57:39;;;;;;;;;;;;;;;;;;5051295;28;19924;-67
2023/08/07 06:00:05;;;;;;;;;;;;;;;;;;5066549;28;19921;-67
2023/08/07 06:02:31;;;;;;;;;;;;;;;;;;5067166;28;20061;-67
2023/08/07 06:04:57;;;;;;;;;;;;;;;;;;5068697;28;20472;-67
2023/08/07 06:07:23;;;;;;;;;;;;;;;;;;5066389;28;19924;-67
2023/08/07 06:09:49;;;;;;;;;;;;;;;;;;5064466;28;19920;-67
2023/08/07 06:12:14;;;;;;;;;;;;;;;;;;5063889;28;20011;-67
2023/08/07 06:14:40;;;;;;;;;;;;;;;;;;5067784;28;19925;-67
2023/08/07 06:17:06;;;;;;;;;;;;;;;;;;5065314;28;19970;-67
2023/08/07 06:19:32;;;;;;;;;;;;;;;;;;5065959;28;19927;-67
2023/08/07 06:21:58;;;;;;;;;;;;;;;;;;5068854;28;19920;-66
2023/08/07 06:24:25;;;;;;;;;;;;;;;;;;5065539;28;19935;-67
2023/08/07 06:26:51;;;;;;;;;;;;;;;;;;5062981;28;19997;-66
2023/08/07 06:29:17;;;;;;;;;;;;;;;;;;5049384;28;20350;-66
2023/08/07 06:31:43;;;;;;;;;;;;;;;;;;5052580;28;19939;-67
2023/08/07 06:34:09;;;;;;;;;;;;;;;;;;5071369;28;20486;-67
2023/08/07 06:36:35;;;;;;;;;;;;;;;;;;5073383;28;19927;-67
2023/08/07 06:39:01;;;;;;;;;;;;;;;;;;5074438;28;19924;-67
2023/08/07 06:41:26;;;;;;;;;;;;;;;;;;5066681;28;20374;-67
2023/08/07 06:43:52;;;;;;;;;;;;;;;;;;5071684;28;19927;-67
2023/08/07 06:46:24;;;;;;;;;;;;;;;;;;5070859;28;20015;-68
2023/08/07 06:48:49;;;;;;;;;;;;;;;;;;5068360;28;19928;-68
2023/08/07 06:51:16;;;;;;;;;;;;;;;;;;5071858;28;20650;-67
2023/08/07 06:53:42;;;;;;;;;;;;;;;;;;5122439;22;19924;-64
2023/08/07 06:56:08;;;;;;;;;;;;;;;;;;5066156;28;19965;-64
2023/08/07 06:58:34;;;;;;;;;;;;;;;;;;5093236;28;19920;-64
2023/08/07 07:01:00;;;;;;;;;;;;;;;;;;5091350;28;19993;-63
2023/08/07 07:03:26;;;;;;;;;;;;;;;;;;5092990;28;19924;-64
2023/08/07 07:05:52;;;;;;;;;;;;;;;;;;5089962;28;19935;-64
2023/08/07 07:08:18;;;;;;;;;;;;;;;;;;5088927;28;20345;-64
2023/08/07 07:10:43;;;;;;;;;;;;;;;;;;5090842;28;20057;-65
2023/08/07 07:13:09;;;;;;;;;;;;;;;;;;5085893;28;19925;-64
2023/08/07 07:15:35;;;;;;;;;;;;;;;;;;5086536;28;19951;-65
2023/08/07 07:18:01;;;;;;;;;;;;;;;;;;5091676;28;20509;-64
2023/08/07 07:20:27;;;;;;;;;;;;;;;;;;5091495;28;19924;-64
2023/08/07 07:22:53;;;;;;;;;;;;;;;;;;5091476;28;19927;-64
2023/08/07 07:25:19;;;;;;;;;;;;;;;;;;5090452;28;19927;-64
2023/08/07 07:27:45;;;;;;;;;;;;;;;;;;5087904;28;19928;-65
2023/08/07 07:30:11;;;;;;;;;;;;;;;;;;5081735;28;20292;-63
2023/08/07 07:32:37;;;;;;;;;;;;;;;;;;5088758;28;20019;-63
2023/08/07 07:35:03;;;;;;;;;;;;;;;;;;5086298;28;19956;-64
2023/08/07 07:37:29;;;;;;;;;;;;;;;;;;5087256;28;19928;-63
2023/08/07 07:39:55;;;;;;;;;;;;;;;;;;5091890;28;19920;-64
2023/08/07 07:42:21;;;;;;;;;;;;;;;;;;5090599;28;20005;-64
2023/08/07 07:44:47;;;;;;;;;;;;;;;;;;5091130;28;19977;-65
2023/08/07 07:47:13;;;;;;;;;;;;;;;;;;5090696;28;20310;-64
2023/08/07 07:49:39;;;;;;;;;;;;;;;;;;5091022;28;20029;-63
2023/08/07 07:52:06;;;;;;;;;;;;;;;;;;5090546;28;19976;-63
2023/08/07 07:54:32;;;;;;;;;;;;;;;;;;5088782;28;19974;-63
2023/08/07 07:56:57;;;;;;;;;;;;;;;;;;5092945;28;19966;-64
2023/08/07 07:59:23;;;;;;;;;;;;;;;;;;5091654;28;19931;-63
2023/08/07 08:01:49;;;;;;;;;;;;;;;;;;5091097;28;19927;-63
2023/08/07 08:04:15;;;;;;;;;;;;;;;;;;5092979;28;19973;-63
2023/08/07 08:06:41;;;;;;;;;;;;;;;;;;5090896;28;19920;-64
2023/08/07 08:09:09;;;;;;;;;;;;;;;;;;5087711;28;19927;-64
2023/08/07 08:11:35;;;;;;;;;;;;;;;;;;5082088;28;20339;-63
2023/08/07 08:14:01;;;;;;;;;;;;;;;;;;5081772;28;20003;-63
2023/08/07 08:16:27;;;;;;;;;;;;;;;;;;5092471;28;20003;-64
2023/08/07 08:18:53;;;;;;;;;;;;;;;;;;5091113;28;19920;-64
2023/08/07 08:21:19;;;;;;;;;;;;;;;;;;5091535;28;19927;-63
2023/08/07 08:23:45;;;;;;;;;;;;;;;;;;5088857;28;19937;-64
2023/08/07 08:26:11;;;;;;;;;;;;;;;;;;5091372;28;20447;-65
2023/08/07 08:28:37;;;;;;;;;;;;;;;;;;5091671;28;19967;-64
2023/08/07 08:31:02;;;;;;;;;;;;;;;;;;5087270;28;20011;-65
2023/08/07 08:33:28;;;;;;;;;;;;;;;;;;5070928;28;19925;-64
2023/08/07 08:35:54;;;;;;;;;;;;;;;;;;5070661;28;19924;-64
2023/08/07 08:38:21;;;;;;;;;;;;;;;;;;5057259;28;20002;-65
2023/08/07 08:40:47;;;;;;;;;;;;;;;;;;5091792;28;19923;-64
2023/08/07 08:43:13;;;;;;;;;;;;;;;;;;5085783;28;19928;-64
2023/08/07 08:45:39;;;;;;;;;;;;;;;;;;5091086;28;19928;-64
2023/08/07 08:48:05;;;;;;;;;;;;;;;;;;5086025;28;20404;-64
2023/08/07 08:50:31;;;;;;;;;;;;;;;;;;5090109;28;19928;-64
2023/08/07 08:52:57;;;;;;;;;;;;;;;;;;5085368;28;19950;-64
2023/08/07 08:55:23;;;;;;;;;;;;;;;;;;5086532;28;19921;-65
2023/08/07 08:57:53;;;;;;;;;;;;;;;;;;5090799;28;20026;-64
2023/08/07 09:00:21;;;;;;;;;;;;;;;;;;5087902;28;19924;-64
2023/08/07 09:02:47;;;;;;;;;;;;;;;;;;5087777;28;19927;-64
2023/08/07 09:05:13;;;;;;;;;;;;;;;;;;5087017;28;19920;-65
2023/08/07 09:07:39;;;;;;;;;;;;;;;;;;5090142;28;19964;-65
2023/08/07 09:10:04;;;;;;;;;;;;;;;;;;5087443;28;19924;-64
2023/08/07 09:12:30;;;;;;;;;;;;;;;;;;5089865;28;19978;-65
2023/08/07 09:14:56;;;;;;;;;;;;;;;;;;5088203;28;20361;-65
2023/08/07 09:17:22;;;;;;;;;;;;;;;;;;5090985;28;19920;-64
2023/08/07 09:19:48;;;;;;;;;;;;;;;;;;5079790;28;20277;-64
2023/08/07 09:22:14;;;;;;;;;;;;;;;;;;5083045;28;19939;-64
2023/08/07 09:24:40;;;;;;;;;;;;;;;;;;5083130;28;19928;-64
2023/08/07 09:27:06;;;;;;;;;;;;;;;;;;5085310;28;19955;-64
2023/08/07 09:29:32;;;;;;;;;;;;;;;;;;5084492;28;19931;-65
2023/08/07 09:31:58;;;;;;;;;;;;;;;;;;5082923;28;19924;-65
2023/08/07 09:34:24;;;;;;;;;;;;;;;;;;5089853;28;19920;-65
2023/08/07 09:36:50;;;;;;;;;;;;;;;;;;5090736;28;19924;-64
2023/08/07 09:39:16;;;;;;;;;;;;;;;;;;5090936;28;20144;-64
2023/08/07 09:41:41;;;;;;;;;;;;;;;;;;5073950;28;19952;-64
2023/08/07 09:44:08;;;;;;;;;;;;;;;;;;5088340;28;19936;-65
2023/08/07 09:46:37;;;;;;;;;;;;;;;;;;5087544;28;19947;-64
2023/08/07 09:49:03;;;;;;;;;;;;;;;;;;5088378;28;19920;-64
2023/08/07 09:51:29;;;;;;;;;;;;;;;;;;5091425;28;19921;-63
2023/08/07 09:53:54;;;;;;;;;;;;;;;;;;5089275;28;20424;-65
2023/08/07 09:56:20;;;;;;;;;;;;;;;;;;5086825;28;19935;-64
2023/08/07 09:58:46;;;;;;;;;;;;;;;;;;5090590;28;20407;-64
2023/08/07 10:01:12;;;;;;;;;;;;;;;;;;5089844;28;19920;-64
2023/08/07 10:03:38;;;;;;;;;;;;;;;;;;5086821;28;19920;-64
2023/08/07 10:06:04;;;;;;;;;;;;;;;;;;5092767;28;19924;-65
2023/08/07 10:08:30;;;;;;;;;;;;;;;;;;5093997;28;19934;-65
2023/08/07 10:10:56;;;;;;;;;;;;;;;;;;5095120;28;19924;-64
2023/08/07 10:13:22;;;;;;;;;;;;;;;;;;5093442;28;20301;-63
2023/08/07 10:15:48;;;;;;;;;;;;;;;;;;5093500;28;19928;-63
2023/08/07 10:18:13;;;;;;;;;;;;;;;;;;5093096;28;19943;-64
2023/08/07 10:20:42;;;;;;;;;;;;;;;;;;5092306;28;19920;-64
2023/08/07 10:23:08;;;;;;;;;;;;;;;;;;5092898;28;20460;-63
2023/08/07 10:25:34;;;;;;;;;;;;;;;;;;5093502;28;19920;-63
2023/08/07 10:28:00;;;;;;;;;;;;;;;;;;5093723;28;19931;-63
2023/08/07 10:30:28;;;;;;;;;;;;;;;;;;5092119;28;21327;-65
2023/08/07 10:32:53;;;;;;;;;;;;;;;;;;5092025;28;19924;-64
2023/08/07 10:35:19;;;;;;;;;;;;;;;;;;5087724;28;20035;-65
2023/08/07 10:37:45;;;;;;;;;;;;;;;;;;5092837;28;20594;-65
2023/08/07 10:40:12;;;;;;;;;;;;;;;;;;5093545;28;19924;-63
2023/08/07 10:42:38;;;;;;;;;;;;;;;;;;5093225;28;20014;-63
2023/08/07 10:45:04;;;;;;;;;;;;;;;;;;5086845;28;20019;-64
2023/08/07 10:47:30;;;;;;;;;;;;;;;;;;5082650;28;19924;-64
2023/08/07 10:49:56;;;;;;;;;;;;;;;;;;5090209;28;19935;-64
2023/08/07 10:52:22;;;;;;;;;;;;;;;;;;5090976;28;20339;-63
2023/08/07 10:54:48;;;;;;;;;;;;;;;;;;5076378;28;19924;-65
2023/08/07 10:57:13;;;;;;;;;;;;;;;;;;5086558;28;19928;-64
2023/08/07 10:59:39;;;;;;;;;;;;;;;;;;5085766;28;19927;-64
2023/08/07 11:02:05;;;;;;;;;;;;;;;;;;5090317;28;19935;-64
2023/08/07 11:04:32;;;;;;;;;;;;;;;;;;5090788;28;19927;-65
2023/08/07 11:06:58;;;;;;;;;;;;;;;;;;5090407;28;19946;-64
2023/08/07 11:09:23;;;;;;;;;;;;;;;;;;5093759;28;19928;-64
2023/08/07 11:11:49;;;;;;;;;;;;;;;;;;5093688;28;19924;-64
2023/08/07 11:14:15;;;;;;;;;;;;;;;;;;5092152;28;19936;-63
2023/08/07 11:16:41;;;;;;;;;;;;;;;;;;5087170;28;20046;-64
2023/08/07 11:19:07;;;;;;;;;;;;;;;;;;5088160;28;20038;-63
2023/08/07 11:21:33;;;;;;;;;;;;;;;;;;5089042;28;20041;-63
2023/08/07 11:23:59;;;;;;;;;;;;;;;;;;5077097;28;20536;-63
2023/08/07 11:26:26;;;;;;;;;;;;;;;;;;5083649;28;20416;-64
2023/08/07 11:28:51;;;;;;;;;;;;;;;;;;5092622;28;20006;-64
2023/08/07 11:31:17;;;;;;;;;;;;;;;;;;5089416;28;20078;-64
2023/08/07 11:33:43;;;;;;;;;;;;;;;;;;5089230;28;20366;-64
2023/08/07 11:36:09;;;;;;;;;;;;;;;;;;5088699;28;20006;-65
2023/08/07 11:38:35;;;;;;;;;;;;;;;;;;5089269;28;19927;-63
2023/08/07 11:41:01;;;;;;;;;;;;;;;;;;5091706;28;20325;-63
2023/08/07 11:43:27;;;;;;;;;;;;;;;;;;5091541;28;19923;-63
2023/08/07 11:45:53;;;;;;;;;;;;;;;;;;5089672;28;20811;-63
2023/08/07 11:48:19;;;;;;;;;;;;;;;;;;5091521;28;19920;-63
2023/08/07 11:50:45;;;;;;;;;;;;;;;;;;5092573;28;19954;-64
2023/08/07 11:53:11;;;;;;;;;;;;;;;;;;5088277;28;20484;-64
2023/08/07 11:55:37;;;;;;;;;;;;;;;;;;5091415;28;19970;-64
2023/08/07 11:58:03;;;;;;;;;;;;;;;;;;5089286;28;20011;-65
2023/08/07 12:00:29;;;;;;;;;;;;;;;;;;5091290;28;20042;-63
2023/08/07 12:02:55;;;;;;;;;;;;;;;;;;5087495;28;19920;-64
2023/08/07 12:05:20;;;;;;;;;;;;;;;;;;5085484;28;19924;-65
2023/08/07 12:07:46;;;;;;;;;;;;;;;;;;5090979;28;20940;-63
2023/08/07 12:10:12;;;;;;;;;;;;;;;;;;5088419;28;19930;-62
2023/08/07 12:12:38;;;;;;;;;;;;;;;;;;5092287;28;19928;-63
2023/08/07 12:15:04;;;;;;;;;;;;;;;;;;5091234;28;19967;-63
2023/08/07 12:17:30;;;;;;;;;;;;;;;;;;5091385;28;19931;-63
2023/08/07 12:19:56;;;;;;;;;;;;;;;;;;5088826;28;19924;-63
2023/08/07 12:22:22;;;;;;;;;;;;;;;;;;5092950;28;20408;-63
2023/08/07 12:24:48;;;;;;;;;;;;;;;;;;5092908;28;19924;-63
2023/08/07 12:27:14;;;;;;;;;;;;;;;;;;5091713;28;19927;-63
2023/08/07 12:29:40;;;;;;;;;;;;;;;;;;5091315;28;19924;-63
2023/08/07 12:32:06;;;;;;;;;;;;;;;;;;5092803;28;19975;-63
2023/08/07 12:34:32;;;;;;;;;;;;;;;;;;5092778;28;19928;-63
2023/08/07 12:36:58;;;;;;;;;;;;;;;;;;5091160;28;19969;-63
2023/08/07 12:39:24;;;;;;;;;;;;;;;;;;5087478;28;19924;-63
2023/08/07 12:41:50;;;;;;;;;;;;;;;;;;5087223;28;19920;-63
2023/08/07 12:44:16;;;;;;;;;;;;;;;;;;5076920;28;19920;-63
2023/08/07 12:46:42;;;;;;;;;;;;;;;;;;5083914;28;20367;-63
2023/08/07 12:49:08;;;;;;;;;;;;;;;;;;5092329;28;19920;-63
2023/08/07 12:51:34;;;;;;;;;;;;;;;;;;5078570;28;19927;-63
2023/08/07 12:54:00;;;;;;;;;;;;;;;;;;5090045;28;19971;-68
2023/08/07 12:56:26;;;;;;;;;;;;;;;;;;5085565;28;19931;-62
2023/08/07 12:58:52;;;;;;;;;;;;;;;;;;5087816;28;19927;-64
2023/08/07 13:01:18;;;;;;;;;;;;;;;;;;5090458;28;20369;-64
2023/08/07 13:03:44;;;;;;;;;;;;;;;;;;5091089;28;20117;-63
2023/08/07 13:06:11;;;;;;;;;;;;;;;;;;5072814;28;20301;-64
2023/08/07 13:08:37;;;;;;;;;;;;;;;;;;5090983;28;19924;-63
2023/08/07 13:11:03;;;;;;;;;;;;;;;;;;5088745;28;19926;-63
2023/08/07 13:13:30;;;;;;;;;;;;;;;;;;5090532;28;19924;-63
2023/08/07 13:15:56;;;;;;;;;;;;;;;;;;5084818;28;20393;-63
2023/08/07 13:18:22;;;;;;;;;;;;;;;;;;5088534;28;19965;-63
2023/08/07 13:20:48;;;;;;;;;;;;;;;;;;5091809;28;19920;-63
2023/08/07 13:23:14;;;;;;;;;;;;;;;;;;5091698;28;20399;-63
2023/08/07 13:25:40;;;;;;;;;;;;;;;;;;5079338;28;20012;-62
2023/08/07 13:28:06;;;;;;;;;;;;;;;;;;5091070;28;19920;-63
2023/08/07 13:30:32;;;;;;;;;;;;;;;;;;5088510;28;19924;-62
2023/08/07 13:32:58;;;;;;;;;;;;;;;;;;5091479;28;20281;-63
2023/08/07 13:35:24;;;;;;;;;;;;;;;;;;5087450;28;19924;-64
2023/08/07 13:37:50;;;;;;;;;;;;;;;;;;5089463;28;19920;-64
2023/08/07 13:40:16;;;;;;;;;;;;;;;;;;5085061;28;20102;-64
2023/08/07 13:42:43;;;;;;;;;;;;;;;;;;5088409;28;20393;-64
2023/08/07 13:45:09;;;;;;;;;;;;;;;;;;5090502;28;20437;-64
2023/08/07 13:47:35;;;;;;;;;;;;;;;;;;5087778;28;20409;-61
2023/08/07 13:50:02;;;;;;;;;;;;;;;;;;5086388;28;20006;-63
2023/08/07 13:52:28;;;;;;;;;;;;;;;;;;5078428;28;19925;-64
2023/08/07 13:54:54;;;;;;;;;;;;;;;;;;5084552;28;19924;-63
2023/08/07 13:57:19;;;;;;;;;;;;;;;;;;5090113;28;20147;-63
2023/08/07 13:59:45;;;;;;;;;;;;;;;;;;5080039;28;19920;-62
2023/08/07 14:02:11;;;;;;;;;;;;;;;;;;5083631;28;19928;-63
2023/08/07 14:04:37;;;;;;;;;;;;;;;;;;5075724;28;19928;-64
2023/08/07 14:07:03;;;;;;;;;;;;;;;;;;5080213;28;19930;-63
2023/08/07 14:09:29;;;;;;;;;;;;;;;;;;5079614;28;19931;-63
2023/08/07 14:11:56;;;;;;;;;;;;;;;;;;5075402;28;19924;-66
2023/08/07 14:14:22;;;;;;;;;;;;;;;;;;5076786;28;19924;-64
2023/08/07 14:16:48;;;;;;;;;;;;;;;;;;5086904;28;20247;-64
2023/08/07 14:19:14;;;;;;;;;;;;;;;;;;5089269;28;19977;-64
2023/08/07 14:21:40;;;;;;;;;;;;;;;;;;5087504;28;19920;-64
2023/08/07 14:24:06;;;;;;;;;;;;;;;;;;5087768;28;19969;-64
2023/08/07 14:26:32;;;;;;;;;;;;;;;;;;5088991;28;19964;-64
2023/08/07 14:28:58;;;;;;;;;;;;;;;;;;5081283;28;19948;-64
2023/08/07 14:31:24;;;;;;;;;;;;;;;;;;5077403;28;19921;-64
2023/08/07 14:33:50;;;;;;;;;;;;;;;;;;5078847;28;19924;-64
2023/08/07 14:36:16;;;;;;;;;;;;;;;;;;5079935;28;19923;-63
2023/08/07 14:38:42;;;;;;;;;;;;;;;;;;5088070;28;19928;-64
2023/08/07 14:41:08;;;;;;;;;;;;;;;;;;5088649;28;20290;-62
2023/08/07 14:43:34;;;;;;;;;;;;;;;;;;5088873;28;19967;-65
2023/08/07 14:46:00;;;;;;;;;;;;;;;;;;5089437;28;19924;-63
2023/08/07 14:48:26;;;;;;;;;;;;;;;;;;5088734;28;19920;-64
2023/08/07 14:50:51;;;;;;;;;;;;;;;;;;5090767;28;19923;-64
2023/08/07 14:53:17;;;;;;;;;;;;;;;;;;5092024;28;19924;-64
2023/08/07 14:55:43;;;;;;;;;;;;;;;;;;5093260;28;19923;-64
2023/08/07 14:58:09;;;;;;;;;;;;;;;;;;5093321;28;19931;-64
2023/08/07 15:00:35;;;;;;;;;;;;;;;;;;5092639;28;20303;-64
2023/08/07 15:03:02;;;;;;;;;;;;;;;;;;5082431;28;19967;-64
2023/08/07 15:05:28;;;;;;;;;;;;;;;;;;5082430;28;19927;-64
2023/08/07 15:07:54;;;;;;;;;;;;;;;;;;5093599;28;19920;-64
2023/08/07 15:10:21;;;;;;;;;;;;;;;;;;5092142;28;20393;-65
2023/08/07 15:12:47;;;;;;;;;;;;;;;;;;5084005;28;19924;-64
2023/08/07 15:15:13;;;;;;;;;;;;;;;;;;5092268;28;19924;-63
2023/08/07 15:17:39;;;;;;;;;;;;;;;;;;5092209;28;19958;-63
2023/08/07 15:20:05;;;;;;;;;;;;;;;;;;5090220;28;19920;-65
2023/08/07 15:22:31;;;;;;;;;;;;;;;;;;5090145;28;19927;-65
2023/08/07 15:24:57;;;;;;;;;;;;;;;;;;5092246;28;19923;-65
2023/08/07 15:27:23;;;;;;;;;;;;;;;;;;5081125;28;20069;-64
2023/08/07 15:29:48;;;;;;;;;;;;;;;;;;5084921;28;19942;-64
2023/08/07 15:32:18;;;;;;;;;;;;;;;;;;5079835;28;19924;-64
2023/08/07 15:34:44;;;;;;;;;;;;;;;;;;5086644;28;19928;-64
2023/08/07 15:37:10;;;;;;;;;;;;;;;;;;5091717;28;20262;-64
2023/08/07 15:39:36;;;;;;;;;;;;;;;;;;5091681;28;19927;-64
2023/08/07 15:42:01;;;;;;;;;;;;;;;;;;5091000;28;19963;-65
2023/08/07 15:44:27;;;;;;;;;;;;;;;;;;5085648;28;19931;-65
2023/08/07 15:46:53;;;;;;;;;;;;;;;;;;5084253;28;19924;-64
2023/08/07 15:49:19;;;;;;;;;;;;;;;;;;5080834;28;20308;-64
2023/08/07 15:51:45;;;;;;;;;;;;;;;;;;5088731;28;19927;-64
2023/08/07 15:54:11;;;;;;;;;;;;;;;;;;5091099;28;19935;-64
2023/08/07 15:56:37;;;;;;;;;;;;;;;;;;5088243;28;20003;-65
2023/08/07 15:59:03;;;;;;;;;;;;;;;;;;5083035;28;19927;-64
2023/08/07 16:01:29;;;;;;;;;;;;;;;;;;5087865;28;20031;-64
2023/08/07 16:03:58;;;;;;;;;;;;;;;;;;5091401;28;19951;-64
2023/08/07 16:06:24;;;;;;;;;;;;;;;;;;5093341;28;20010;-64
2023/08/07 16:08:49;;;;;;;;;;;;;;;;;;5089878;28;20011;-64
2023/08/07 16:11:15;;;;;;;;;;;;;;;;;;5079292;28;19971;-64
2023/08/07 16:13:41;;;;;;;;;;;;;;;;;;5092068;28;20042;-63
2023/08/07 16:16:07;;;;;;;;;;;;;;;;;;5092835;28;19924;-64
2023/08/07 16:18:33;;;;;;;;;;;;;;;;;;5089922;28;20341;-64
2023/08/07 16:20:59;;;;;;;;;;;;;;;;;;5089422;28;19920;-64
2023/08/07 16:23:25;;;;;;;;;;;;;;;;;;5088627;28;19934;-64
2023/08/07 16:25:51;;;;;;;;;;;;;;;;;;5074485;28;19924;-64
2023/08/07 16:28:18;;;;;;;;;;;;;;;;;;5092985;28;19924;-64
2023/08/07 16:30:44;;;;;;;;;;;;;;;;;;5092347;28;19927;-64
2023/08/07 16:33:10;;;;;;;;;;;;;;;;;;5089514;28;19924;-65
2023/08/07 16:35:36;;;;;;;;;;;;;;;;;;5089845;28;19931;-64
2023/08/07 16:38:03;;;;;;;;;;;;;;;;;;5081008;28;19924;-64